createdAt,value
2023-02-19T05:00:36.444Z,89.04
2023-02-19T05:01:36.376Z,88.43
2023-02-19T05:02:36.337Z,88.43
2023-02-19T05:03:36.327Z,88.70
2023-02-19T05:04:36.358Z,88.53
2023-02-19T05:05:36.313Z,89.36
2023-02-19T05:06:36.322Z,89.21
2023-02-19T05:07:36.282Z,88.94
2023-02-19T05:08:36.269Z,89.56
2023-02-19T05:09:36.275Z,89.42
2023-02-19T05:10:36.246Z,89.72
2023-02-19T05:11:41.279Z,89.92
2023-02-19T05:12:36.226Z,89.62
2023-02-19T05:13:36.234Z,90.37
2023-02-19T05:14:36.261Z,90.07
2023-02-19T05:15:36.256Z,90.69
2023-02-19T05:16:36.193Z,90.58
2023-02-19T05:17:36.221Z,90.48
2023-02-19T05:18:36.173Z,90.69
2023-02-19T05:19:36.149Z,90.37
2023-02-19T05:20:36.143Z,90.58
2023-02-19T05:21:36.144Z,91.09
2023-02-19T05:22:41.151Z,90.69
2023-02-19T05:23:36.106Z,90.79
2023-02-19T05:24:36.124Z,91.20
2023-02-19T05:25:36.112Z,91.20
2023-02-19T05:26:36.097Z,91.82
2023-02-19T05:27:36.060Z,91.71
2023-02-19T05:28:36.062Z,91.96
2023-02-19T05:29:36.037Z,91.71
2023-02-19T05:30:36.052Z,91.75
2023-02-19T05:31:36.144Z,91.75
2023-02-19T05:32:36.008Z,91.71
2023-02-19T05:33:41.017Z,91.91
2023-02-19T05:34:36.006Z,91.65
2023-02-19T05:35:35.971Z,91.65
2023-02-19T05:36:35.988Z,91.96
2023-02-19T05:37:35.953Z,92.16
2023-02-19T05:38:35.948Z,93.08
2023-02-19T05:39:35.929Z,92.27
2023-02-19T05:40:35.917Z,92.98
2023-02-19T05:41:35.915Z,92.36
2023-02-19T05:42:35.906Z,92.16
2023-02-19T05:43:35.937Z,92.98
2023-02-19T05:44:40.900Z,92.68
2023-02-19T05:45:35.913Z,92.57
2023-02-19T05:46:35.968Z,93.29
2023-02-19T05:47:35.856Z,93.19
2023-02-19T05:48:35.828Z,93.19
2023-02-19T05:49:35.862Z,93.29
2023-02-19T05:50:37.259Z,93.54
2023-02-19T05:51:35.814Z,93.49
2023-02-19T05:52:35.786Z,93.39
2023-02-19T05:53:35.776Z,93.29
2023-02-19T05:54:35.779Z,93.29
2023-02-19T05:55:40.776Z,93.49
2023-02-19T05:56:35.754Z,93.60
2023-02-19T05:57:35.730Z,93.19
2023-02-19T05:58:35.718Z,93.70
2023-02-19T05:59:35.710Z,93.60
2023-02-19T06:00:35.701Z,93.90
2023-02-19T06:01:35.703Z,94.32
2023-02-19T06:02:35.770Z,94.52
2023-02-19T06:03:35.800Z,94.87
2023-02-19T06:04:35.654Z,94.87
2023-02-19T06:05:35.642Z,95.07
2023-02-19T06:06:40.697Z,95.28
2023-02-19T06:07:35.626Z,95.59
2023-02-19T06:08:35.613Z,95.69
2023-02-19T06:09:35.594Z,95.90
2023-02-19T06:10:35.594Z,96.00
2023-02-19T06:11:35.578Z,96.00
2023-02-19T06:12:35.594Z,96.10
2023-02-19T06:13:35.552Z,96.04
2023-02-19T06:14:35.542Z,95.79
2023-02-19T06:15:35.541Z,95.84
2023-02-19T06:16:35.519Z,95.90
2023-02-19T06:17:40.538Z,95.94
2023-02-19T06:18:35.500Z,95.94
2023-02-19T06:19:35.484Z,95.94
2023-02-19T06:20:35.476Z,95.53
2023-02-19T06:21:35.466Z,95.43
2023-02-19T06:22:35.488Z,95.39
2023-02-19T06:23:35.458Z,95.18
2023-02-19T06:24:35.440Z,95.53
2023-02-19T06:25:35.481Z,95.28
2023-02-19T06:26:35.448Z,95.23
2023-02-19T06:27:35.422Z,95.28
2023-02-19T06:28:40.426Z,95.28
2023-02-19T06:29:35.375Z,95.39
2023-02-19T06:30:35.504Z,95.28
2023-02-19T06:31:35.455Z,95.39
2023-02-19T06:32:35.358Z,95.32
2023-02-19T06:33:35.341Z,94.77
2023-02-19T06:34:35.327Z,95.18
2023-02-19T06:35:35.314Z,95.28
2023-02-19T06:36:35.325Z,95.07
2023-02-19T06:37:35.302Z,95.07
2023-02-19T06:38:35.280Z,94.26
2023-02-19T06:39:40.291Z,94.05
2023-02-19T06:40:35.271Z,93.85
2023-02-19T06:41:35.346Z,93.95
2023-02-19T06:42:35.250Z,94.05
2023-02-19T06:43:35.228Z,93.74
2023-02-19T06:44:35.221Z,93.54
2023-02-19T06:45:35.220Z,93.23
2023-02-19T06:46:35.234Z,93.54
2023-02-19T06:47:35.210Z,93.33
2023-02-19T06:48:35.195Z,93.44
2023-02-19T06:49:35.164Z,92.93
2023-02-19T06:50:40.171Z,92.61
2023-02-19T06:51:35.146Z,93.13
2023-02-19T06:52:35.140Z,93.33
2023-02-19T06:53:35.130Z,92.61
2023-02-19T06:54:35.104Z,92.72
2023-02-19T06:55:35.114Z,92.10
2023-02-19T06:56:35.085Z,91.75
2023-02-19T06:57:35.097Z,91.44
2023-02-19T06:58:35.070Z,91.44
2023-02-19T06:59:35.062Z,91.44
2023-02-19T07:00:35.094Z,91.55
2023-02-19T07:01:40.054Z,91.03
2023-02-19T07:02:35.029Z,90.42
2023-02-19T07:03:35.015Z,89.50
2023-02-19T07:04:34.998Z,88.33
2023-02-19T07:05:34.985Z,87.71
2023-02-19T07:06:34.970Z,87.61
2023-02-19T07:07:34.977Z,87.57
2023-02-19T07:08:34.947Z,87.71
2023-02-19T07:09:34.938Z,87.10
2023-02-19T07:10:34.935Z,86.85
2023-02-19T07:11:35.023Z,86.34
2023-02-19T07:12:39.978Z,85.83
2023-02-19T07:13:34.891Z,85.52
2023-02-19T07:14:34.884Z,86.04
2023-02-19T07:15:34.886Z,85.72
2023-02-19T07:16:34.922Z,85.52
2023-02-19T07:17:34.851Z,85.72
2023-02-19T07:18:34.850Z,85.42
2023-02-19T07:19:34.842Z,85.31
2023-02-19T07:20:34.820Z,85.22
2023-02-19T07:21:34.841Z,85.22
2023-02-19T07:22:34.801Z,85.22
2023-02-19T07:23:39.817Z,85.42
2023-02-19T07:24:34.775Z,85.22
2023-02-19T07:25:34.755Z,85.31
2023-02-19T07:26:34.749Z,85.01
2023-02-19T07:27:34.739Z,85.01
2023-02-19T07:28:34.741Z,85.22
2023-02-19T07:29:34.729Z,85.22
2023-02-19T07:30:34.820Z,85.07
2023-02-19T07:31:34.864Z,85.31
2023-02-19T07:32:34.677Z,85.01
2023-02-19T07:33:34.696Z,84.56
2023-02-19T07:34:39.679Z,84.50
2023-02-19T07:35:34.647Z,84.70
2023-02-19T07:36:34.636Z,84.09
2023-02-19T07:37:34.625Z,84.56
2023-02-19T07:38:34.627Z,83.84
2023-02-19T07:39:34.600Z,84.60
2023-02-19T07:40:34.638Z,84.77
2023-02-19T07:41:34.602Z,84.87
2023-02-19T07:42:34.579Z,84.87
2023-02-19T07:43:34.581Z,84.05
2023-02-19T07:44:34.553Z,83.64
2023-02-19T07:45:39.589Z,83.54
2023-02-19T07:46:34.526Z,84.05
2023-02-19T07:47:34.530Z,83.84
2023-02-19T07:48:34.528Z,83.50
2023-02-19T07:49:34.499Z,83.81
2023-02-19T07:50:34.482Z,83.54
2023-02-19T07:51:34.515Z,82.78
2023-02-19T07:52:34.468Z,82.17
2023-02-19T07:53:34.486Z,82.78
2023-02-19T07:54:34.450Z,83.09
2023-02-19T07:55:34.425Z,82.68
2023-02-19T07:56:39.440Z,82.78
2023-02-19T07:57:34.433Z,82.89
2023-02-19T07:58:34.421Z,82.89
2023-02-19T07:59:34.397Z,82.54
2023-02-19T08:00:34.370Z,82.78
2023-02-19T08:01:34.482Z,82.23
2023-02-19T08:02:34.359Z,82.48
2023-02-19T08:03:34.447Z,82.64
2023-02-19T08:04:34.339Z,82.43
2023-02-19T08:05:34.311Z,82.03
2023-02-19T08:06:34.308Z,82.34
2023-02-19T08:07:39.313Z,82.23
2023-02-19T08:08:34.304Z,82.23
2023-02-19T08:09:34.330Z,82.23
2023-02-19T08:10:34.274Z,82.23
2023-02-19T08:11:34.257Z,81.82
2023-02-19T08:12:34.241Z,81.93
2023-02-19T08:13:34.232Z,81.82
2023-02-19T08:14:34.229Z,81.82
2023-02-19T08:15:34.204Z,82.09
2023-02-19T08:16:42.904Z,81.88
2023-02-19T08:17:35.177Z,81.48
2023-02-19T08:18:39.188Z,81.62
2023-02-19T08:19:34.173Z,81.68
2023-02-19T08:20:34.153Z,81.88
2023-02-19T08:21:34.485Z,81.82
2023-02-19T08:22:34.140Z,82.40
2023-02-19T08:23:34.114Z,81.88
2023-02-19T08:24:34.142Z,81.58
2023-02-19T08:25:34.093Z,80.97
2023-02-19T08:26:34.101Z,81.62
2023-02-19T08:27:34.103Z,81.88
2023-02-19T08:28:34.092Z,82.20
2023-02-19T08:29:39.073Z,81.17
2023-02-19T08:30:34.199Z,81.79
2023-02-19T08:31:34.304Z,81.68
2023-02-19T08:32:34.024Z,81.79
2023-02-19T08:33:33.993Z,81.72
2023-02-19T08:34:34.029Z,81.51
2023-02-19T08:35:34.043Z,80.66
2023-02-19T08:36:33.969Z,80.25
2023-02-19T08:37:33.962Z,80.87
2023-02-19T08:38:33.942Z,80.25
2023-02-19T08:39:33.950Z,80.46
2023-02-19T08:40:38.939Z,79.53
2023-02-19T08:41:33.903Z,79.94
2023-02-19T08:42:33.901Z,79.74
2023-02-19T08:43:33.897Z,79.43
2023-02-19T08:44:33.888Z,79.39
2023-02-19T08:45:33.888Z,79.80
2023-02-19T08:46:34.577Z,79.70
2023-02-19T08:47:33.835Z,79.02
2023-02-19T08:48:33.838Z,79.02
2023-02-19T08:49:33.818Z,78.92
2023-02-19T08:50:33.825Z,78.48
2023-02-19T08:51:38.829Z,78.38
2023-02-19T08:52:33.787Z,79.02
2023-02-19T08:53:33.772Z,77.86
2023-02-19T08:54:33.897Z,78.48
2023-02-19T08:55:33.778Z,78.17
2023-02-19T08:56:33.735Z,78.07
2023-02-19T08:57:33.814Z,77.66
2023-02-19T08:58:33.738Z,77.76
2023-02-19T08:59:33.729Z,78.07
2023-02-19T09:00:33.715Z,78.17
2023-02-19T09:01:33.766Z,78.13
2023-02-19T09:02:38.757Z,77.52
2023-02-19T09:03:33.664Z,77.42
2023-02-19T09:04:33.732Z,77.01
2023-02-19T09:05:33.664Z,77.22
2023-02-19T09:06:33.751Z,77.22
2023-02-19T09:07:33.629Z,77.22
2023-02-19T09:08:33.798Z,77.22
2023-02-19T09:09:33.593Z,76.70
2023-02-19T09:10:33.603Z,76.19
2023-02-19T09:11:33.605Z,75.99
2023-02-19T09:12:33.589Z,76.06
2023-02-19T09:13:38.585Z,75.85
2023-02-19T09:14:33.573Z,75.54
2023-02-19T09:15:33.679Z,76.36
2023-02-19T09:16:33.720Z,75.65
2023-02-19T09:17:33.527Z,75.78
2023-02-19T09:18:33.526Z,76.70
2023-02-19T09:19:33.522Z,76.29
2023-02-19T09:20:33.490Z,76.60
2023-02-19T09:21:33.457Z,76.06
2023-02-19T09:22:33.444Z,76.19
2023-02-19T09:23:33.447Z,75.99
2023-02-19T09:24:38.458Z,76.29
2023-02-19T09:25:33.417Z,76.16
2023-02-19T09:26:33.430Z,75.85
2023-02-19T09:27:33.393Z,75.95
2023-02-19T09:28:33.539Z,76.06
2023-02-19T09:29:33.394Z,75.85
2023-02-19T09:30:33.412Z,76.16
2023-02-19T09:31:33.534Z,75.75
2023-02-19T09:32:34.124Z,75.95
2023-02-19T09:33:33.370Z,76.26
2023-02-19T09:34:33.533Z,76.36
2023-02-19T09:35:38.465Z,76.16
2023-02-19T09:36:33.375Z,75.99
2023-02-19T09:37:34.233Z,75.99
2023-02-19T09:38:33.463Z,75.99
2023-02-19T09:39:33.268Z,76.36
2023-02-19T09:40:33.483Z,76.46
2023-02-19T09:41:33.345Z,76.36
2023-02-19T09:42:33.243Z,75.85
2023-02-19T09:43:33.210Z,76.06
2023-02-19T09:44:33.224Z,76.06
2023-02-19T09:45:33.242Z,75.85
2023-02-19T09:46:38.262Z,75.13
2023-02-19T09:47:33.258Z,75.71
2023-02-19T09:48:33.258Z,75.41
2023-02-19T09:49:33.158Z,74.52
2023-02-19T09:50:34.611Z,74.22
2023-02-19T09:51:33.179Z,74.73
2023-02-19T09:52:33.111Z,74.73
2023-02-19T09:53:33.108Z,75.13
2023-02-19T09:54:33.092Z,74.73
2023-02-19T09:55:33.100Z,74.79
2023-02-19T09:56:33.110Z,74.69
2023-02-19T09:57:38.124Z,74.83
2023-02-19T09:58:33.042Z,74.79
2023-02-19T09:59:33.451Z,74.90
2023-02-19T10:00:33.036Z,74.08
2023-02-19T10:01:33.090Z,74.11
2023-02-19T10:02:33.073Z,74.38
2023-02-19T10:03:33.006Z,74.79
2023-02-19T10:04:32.990Z,74.73
2023-02-19T10:05:32.983Z,74.49
2023-02-19T10:06:33.058Z,74.69
2023-02-19T10:07:33.003Z,73.98
2023-02-19T10:08:38.082Z,73.98
2023-02-19T10:09:32.954Z,74.35
2023-02-19T10:10:32.910Z,73.23
2023-02-19T10:11:32.910Z,72.82
2023-02-19T10:12:32.892Z,72.52
2023-02-19T10:13:32.878Z,72.55
2023-02-19T10:14:32.948Z,72.34
2023-02-19T10:15:32.854Z,72.89
2023-02-19T10:16:32.858Z,73.16
2023-02-19T10:17:32.830Z,72.34
2023-02-19T10:18:32.874Z,72.45
2023-02-19T10:19:37.884Z,72.75
2023-02-19T10:20:32.908Z,72.34
2023-02-19T10:21:32.859Z,72.86
2023-02-19T10:22:32.792Z,72.86
2023-02-19T10:23:32.772Z,72.04
2023-02-19T10:24:32.753Z,72.21
2023-02-19T10:25:32.735Z,72.41
2023-02-19T10:26:32.796Z,72.11
2023-02-19T10:27:32.741Z,72.11
2023-02-19T10:28:32.766Z,72.08
2023-02-19T10:29:32.704Z,72.11
2023-02-19T10:30:37.869Z,71.29
2023-02-19T10:31:32.871Z,70.95
2023-02-19T10:32:32.725Z,70.78
2023-02-19T10:33:32.844Z,71.19
2023-02-19T10:34:32.652Z,70.89
2023-02-19T10:35:32.640Z,70.44
2023-02-19T10:36:32.657Z,70.78
2023-02-19T10:37:32.654Z,70.04
2023-02-19T10:38:32.643Z,70.14
2023-02-19T10:39:32.583Z,70.44
2023-02-19T10:40:32.576Z,70.44
2023-02-19T10:41:37.626Z,70.24
2023-02-19T10:42:32.582Z,70.75
2023-02-19T10:43:32.579Z,70.65
2023-02-19T10:44:32.553Z,69.93
2023-02-19T10:45:32.551Z,69.93
2023-02-19T10:46:32.558Z,69.83
2023-02-19T10:47:32.520Z,70.14
2023-02-19T10:48:32.488Z,69.22
2023-02-19T10:49:32.481Z,68.57
2023-02-19T10:50:32.458Z,68.57
2023-02-19T10:51:32.449Z,69.19
2023-02-19T10:52:37.472Z,67.86
2023-02-19T10:53:32.434Z,68.37
2023-02-19T10:54:32.461Z,68.24
2023-02-19T10:55:32.409Z,68.01
2023-02-19T10:56:32.395Z,66.75
2023-02-19T10:57:32.406Z,65.60
2023-02-19T10:58:32.394Z,65.91
2023-02-19T10:59:32.392Z,65.16
2023-02-19T11:00:32.359Z,65.16
2023-02-19T11:01:32.399Z,64.86
2023-02-19T11:02:32.369Z,64.76
2023-02-19T11:03:37.348Z,64.55
2023-02-19T11:04:32.415Z,65.16
2023-02-19T11:05:32.308Z,64.96
2023-02-19T11:06:34.894Z,65.16
2023-02-19T11:07:32.278Z,64.96
2023-02-19T11:08:32.274Z,65.16
2023-02-19T11:09:32.253Z,64.45
2023-02-19T11:10:32.239Z,64.55
2023-02-19T11:11:32.258Z,63.94
2023-02-19T11:12:32.543Z,64.48
2023-02-19T11:13:32.253Z,63.64
2023-02-19T11:14:37.218Z,63.74
2023-02-19T11:15:32.229Z,64.55
2023-02-19T11:16:32.180Z,64.04
2023-02-19T11:17:32.176Z,63.54
2023-02-19T11:18:32.190Z,64.25
2023-02-19T11:19:32.134Z,64.65
2023-02-19T11:20:32.169Z,65.16
2023-02-19T11:21:32.214Z,64.45
2023-02-19T11:22:32.134Z,64.55
2023-02-19T11:23:32.135Z,64.04
2023-02-19T11:24:32.080Z,63.97
2023-02-19T11:25:37.093Z,64.07
2023-02-19T11:26:32.073Z,63.67
2023-02-19T11:27:32.069Z,64.07
2023-02-19T11:28:32.032Z,63.67
2023-02-19T11:29:32.022Z,64.51
2023-02-19T11:30:35.259Z,65.09
2023-02-19T11:31:32.262Z,63.36
2023-02-19T11:32:32.011Z,64.41
2023-02-19T11:33:32.108Z,64.92
2023-02-19T11:34:31.967Z,64.00
2023-02-19T11:35:31.963Z,65.22
2023-02-19T11:36:37.005Z,65.05
2023-02-19T11:37:31.962Z,65.94
2023-02-19T11:38:31.925Z,64.84
2023-02-19T11:39:31.914Z,65.25
2023-02-19T11:40:31.900Z,64.95
2023-02-19T11:41:31.891Z,65.36
2023-02-19T11:42:31.889Z,64.95
2023-02-19T11:43:31.892Z,65.16
2023-02-19T11:44:31.860Z,65.25
2023-02-19T11:45:31.866Z,64.64
2023-02-19T11:46:31.910Z,65.05
2023-02-19T11:47:36.879Z,65.36
2023-02-19T11:48:31.848Z,65.02
2023-02-19T11:49:31.829Z,65.02
2023-02-19T11:50:31.815Z,64.31
2023-02-19T11:51:31.784Z,64.38
2023-02-19T11:52:31.791Z,63.90
2023-02-19T11:53:31.831Z,63.70
2023-02-19T11:54:31.746Z,63.80
2023-02-19T11:55:31.743Z,64.00
2023-02-19T11:56:31.723Z,63.70
2023-02-19T11:57:31.730Z,64.48
2023-02-19T11:58:36.727Z,63.64
2023-02-19T11:59:31.702Z,62.85
2023-02-19T12:00:31.674Z,62.85
2023-02-19T12:01:31.682Z,61.83
2023-02-19T12:02:31.688Z,63.16
2023-02-19T12:03:31.648Z,62.85
2023-02-19T12:04:31.668Z,63.16
2023-02-19T12:05:31.616Z,63.49
2023-02-19T12:06:31.602Z,63.80
2023-02-19T12:07:31.606Z,63.90
2023-02-19T12:08:31.590Z,63.70
2023-02-19T12:09:36.601Z,63.67
2023-02-19T12:10:31.575Z,63.67
2023-02-19T12:11:31.545Z,63.87
2023-02-19T12:12:31.537Z,63.77
2023-02-19T12:13:31.522Z,63.77
2023-02-19T12:14:31.526Z,63.46
2023-02-19T12:15:31.498Z,63.67
2023-02-19T12:16:31.559Z,63.57
2023-02-19T12:17:31.560Z,63.80
2023-02-19T12:18:32.689Z,63.49
2023-02-19T12:19:31.463Z,64.03
2023-02-19T12:20:36.479Z,64.64
2023-02-19T12:21:31.438Z,64.41
2023-02-19T12:22:31.429Z,64.84
2023-02-19T12:23:31.484Z,64.41
2023-02-19T12:24:31.425Z,65.25
2023-02-19T12:25:34.045Z,64.03
2023-02-19T12:26:31.373Z,64.64
2023-02-19T12:27:31.407Z,64.75
2023-02-19T12:28:31.357Z,64.14
2023-02-19T12:29:31.358Z,64.44
2023-02-19T12:30:31.365Z,64.98
2023-02-19T12:31:36.392Z,64.84
2023-02-19T12:32:31.304Z,64.95
2023-02-19T12:33:31.332Z,65.25
2023-02-19T12:34:31.297Z,64.95
2023-02-19T12:35:31.369Z,64.87
2023-02-19T12:36:31.265Z,65.05
2023-02-19T12:37:31.260Z,65.08
2023-02-19T12:38:31.239Z,64.95
2023-02-19T12:39:31.243Z,64.98
2023-02-19T12:40:31.224Z,64.87
2023-02-19T12:41:31.208Z,64.98
2023-02-19T12:42:36.223Z,64.67
2023-02-19T12:43:31.216Z,65.28
2023-02-19T12:44:31.211Z,66.10
2023-02-19T12:45:31.177Z,65.89
2023-02-19T12:46:31.168Z,66.00
2023-02-19T12:47:31.147Z,65.59
2023-02-19T12:48:31.171Z,65.49
2023-02-19T12:49:31.164Z,65.49
2023-02-19T12:50:31.110Z,65.89
2023-02-19T12:51:31.104Z,65.49
2023-02-19T12:52:31.085Z,65.77
2023-02-19T12:53:36.105Z,65.97
2023-02-19T12:54:31.082Z,65.05
2023-02-19T12:55:31.077Z,65.05
2023-02-19T12:56:31.051Z,64.95
2023-02-19T12:57:31.045Z,65.05
2023-02-19T12:58:31.032Z,65.16
2023-02-19T12:59:31.036Z,65.05
2023-02-19T13:00:31.029Z,65.25
2023-02-19T13:01:31.120Z,64.75
2023-02-19T13:02:31.040Z,64.44
2023-02-19T13:03:30.985Z,64.34
2023-02-19T13:04:36.023Z,64.14
2023-02-19T13:05:30.966Z,64.54
2023-02-19T13:06:30.935Z,64.54
2023-02-19T13:07:30.935Z,64.84
2023-02-19T13:08:33.057Z,64.44
2023-02-19T13:09:30.911Z,65.08
2023-02-19T13:10:30.926Z,65.28
2023-02-19T13:11:30.974Z,64.98
2023-02-19T13:12:30.913Z,64.95
2023-02-19T13:13:30.868Z,65.16
2023-02-19T13:14:30.909Z,65.25
2023-02-19T13:15:35.908Z,65.25
2023-02-19T13:16:30.860Z,64.64
2023-02-19T13:17:30.821Z,65.36
2023-02-19T13:18:30.840Z,64.84
2023-02-19T13:19:30.799Z,65.25
2023-02-19T13:20:30.794Z,64.61
2023-02-19T13:21:30.843Z,64.54
2023-02-19T13:22:30.766Z,64.72
2023-02-19T13:23:30.756Z,63.93
2023-02-19T13:24:30.852Z,64.44
2023-02-19T13:25:30.736Z,64.51
2023-02-19T13:26:35.752Z,65.22
2023-02-19T13:27:30.713Z,64.81
2023-02-19T13:28:30.788Z,64.61
2023-02-19T13:29:30.690Z,64.31
2023-02-19T13:30:30.694Z,63.70
2023-02-19T13:31:30.825Z,63.59
2023-02-19T13:32:30.645Z,63.87
2023-02-19T13:33:30.648Z,63.70
2023-02-19T13:34:30.633Z,63.70
2023-02-19T13:35:31.092Z,63.59
2023-02-19T13:36:30.636Z,62.98
2023-02-19T13:37:35.618Z,63.19
2023-02-19T13:38:30.578Z,63.29
2023-02-19T13:39:31.179Z,63.19
2023-02-19T13:40:30.631Z,63.09
2023-02-19T13:41:30.556Z,63.49
2023-02-19T13:42:30.602Z,63.09
2023-02-19T13:43:30.527Z,63.32
2023-02-19T13:44:30.522Z,62.81
2023-02-19T13:45:30.542Z,63.09
2023-02-19T13:46:30.539Z,63.49
2023-02-19T13:47:30.502Z,63.39
2023-02-19T13:48:35.509Z,62.88
2023-02-19T13:49:30.488Z,63.32
2023-02-19T13:50:30.534Z,63.70
2023-02-19T13:51:30.452Z,64.03
2023-02-19T13:52:30.460Z,63.83
2023-02-19T13:53:30.426Z,64.03
2023-02-19T13:54:30.402Z,64.72
2023-02-19T13:55:30.414Z,63.90
2023-02-19T13:56:30.433Z,64.20
2023-02-19T13:57:30.378Z,64.95
2023-02-19T13:58:30.361Z,65.36
2023-02-19T13:59:35.409Z,65.02
2023-02-19T14:00:30.376Z,65.12
2023-02-19T14:01:30.352Z,65.22
2023-02-19T14:02:30.373Z,65.12
2023-02-19T14:03:30.332Z,65.16
2023-02-19T14:04:30.302Z,64.72
2023-02-19T14:05:30.303Z,64.34
2023-02-19T14:06:30.328Z,65.12
2023-02-19T14:07:30.268Z,64.14
2023-02-19T14:08:30.255Z,63.53
2023-02-19T14:09:30.243Z,63.56
2023-02-19T14:10:35.257Z,64.44
2023-02-19T14:11:30.234Z,63.76
2023-02-19T14:12:30.223Z,64.26
2023-02-19T14:13:30.193Z,64.78
2023-02-19T14:14:30.212Z,64.03
2023-02-19T14:15:30.290Z,63.83
2023-02-19T14:16:30.164Z,63.56
2023-02-19T14:17:30.202Z,63.62
2023-02-19T14:18:31.997Z,63.73
2023-02-19T14:19:30.142Z,63.83
2023-02-19T14:20:30.121Z,63.93
2023-02-19T14:21:35.131Z,63.73
2023-02-19T14:22:30.120Z,63.83
2023-02-19T14:23:30.078Z,63.73
2023-02-19T14:24:30.083Z,64.23
2023-02-19T14:25:30.069Z,63.93
2023-02-19T14:26:30.059Z,63.42
2023-02-19T14:27:30.064Z,64.03
2023-02-19T14:28:30.187Z,64.44
2023-02-19T14:29:30.016Z,64.75
2023-02-19T14:30:30.043Z,64.44
2023-02-19T14:31:30.110Z,64.03
2023-02-19T14:32:35.029Z,64.23
2023-02-19T14:33:29.965Z,64.57
2023-02-19T14:34:29.959Z,64.64
2023-02-19T14:35:30.192Z,64.78
2023-02-19T14:36:30.915Z,65.08
2023-02-19T14:37:29.958Z,65.28
2023-02-19T14:38:29.936Z,65.08
2023-02-19T14:39:29.908Z,64.98
2023-02-19T14:40:29.897Z,65.42
2023-02-19T14:41:30.016Z,64.67
2023-02-19T14:42:29.877Z,65.11
2023-02-19T14:43:35.372Z,64.57
2023-02-19T14:44:29.878Z,65.83
2023-02-19T14:45:29.886Z,64.60
2023-02-19T14:46:29.965Z,64.90
2023-02-19T14:47:29.824Z,64.78
2023-02-19T14:48:30.303Z,65.72
2023-02-19T14:49:29.813Z,66.00
2023-02-19T14:50:29.885Z,65.59
2023-02-19T14:51:29.773Z,65.89
2023-02-19T14:52:29.771Z,66.03
2023-02-19T14:53:29.808Z,66.00
2023-02-19T14:54:34.767Z,65.83
2023-02-19T14:55:29.741Z,65.72
2023-02-19T14:56:29.727Z,65.52
2023-02-19T14:57:29.762Z,65.42
2023-02-19T14:58:29.726Z,65.52
2023-02-19T14:59:29.723Z,65.49
2023-02-19T15:00:29.727Z,65.39
2023-02-19T15:01:29.825Z,65.39
2023-02-19T15:02:29.704Z,65.49
2023-02-19T15:03:30.680Z,65.39
2023-02-19T15:04:29.691Z,65.49
2023-02-19T15:05:34.636Z,65.59
2023-02-19T15:06:29.599Z,65.49
2023-02-19T15:07:29.588Z,65.49
2023-02-19T15:08:29.610Z,65.69
2023-02-19T15:09:29.559Z,65.59
2023-02-19T15:10:29.558Z,66.00
2023-02-19T15:11:29.547Z,66.10
2023-02-19T15:12:29.544Z,66.00
2023-02-19T15:13:29.515Z,65.59
2023-02-19T15:14:29.555Z,65.39
2023-02-19T15:15:29.501Z,65.89
2023-02-19T15:16:34.511Z,65.59
2023-02-19T15:17:29.484Z,65.69
2023-02-19T15:18:29.463Z,65.69
2023-02-19T15:19:29.486Z,65.59
2023-02-19T15:20:29.444Z,65.49
2023-02-19T15:21:29.436Z,65.39
2023-02-19T15:22:29.417Z,64.78
2023-02-19T15:23:29.410Z,65.28
2023-02-19T15:24:29.436Z,65.69
2023-02-19T15:25:29.408Z,65.39
2023-02-19T15:26:29.461Z,65.69
2023-02-19T15:27:34.410Z,66.10
2023-02-19T15:28:29.361Z,65.69
2023-02-19T15:29:29.364Z,65.49
2023-02-19T15:30:29.431Z,65.69
2023-02-19T15:31:29.676Z,65.89
2023-02-19T15:32:29.397Z,65.69
2023-02-19T15:33:29.543Z,65.59
2023-02-19T15:34:29.597Z,65.39
2023-02-19T15:35:29.282Z,66.20
2023-02-19T15:36:29.340Z,66.82
2023-02-19T15:37:29.267Z,66.71
2023-02-19T15:38:34.511Z,66.85
2023-02-19T15:39:29.255Z,66.71
2023-02-19T15:40:29.220Z,66.74
2023-02-19T15:41:29.243Z,66.85
2023-02-19T15:42:29.199Z,67.05
2023-02-19T15:43:29.195Z,67.55
2023-02-19T15:44:29.215Z,67.46
2023-02-19T15:45:29.180Z,68.07
2023-02-19T15:46:29.174Z,68.37
2023-02-19T15:47:29.830Z,67.49
2023-02-19T15:48:29.131Z,67.66
2023-02-19T15:49:34.366Z,66.77
2023-02-19T15:50:29.160Z,66.67
2023-02-19T15:51:29.134Z,66.77
2023-02-19T15:52:29.092Z,66.67
2023-02-19T15:53:29.088Z,66.67
2023-02-19T15:54:29.095Z,67.38
2023-02-19T15:55:29.057Z,66.88
2023-02-19T15:56:29.055Z,67.99
2023-02-19T15:57:29.034Z,67.49
2023-02-19T15:58:29.020Z,67.99
2023-02-19T15:59:29.048Z,67.99
2023-02-19T16:00:34.089Z,68.33
2023-02-19T16:01:29.011Z,68.64
2023-02-19T16:02:28.994Z,69.56
2023-02-19T16:03:28.962Z,70.48
2023-02-19T16:04:28.954Z,70.89
2023-02-19T16:05:28.974Z,71.19
2023-02-19T16:06:28.944Z,71.91
2023-02-19T16:07:28.932Z,72.92
2023-02-19T16:08:30.863Z,72.86
2023-02-19T16:09:28.897Z,72.86
2023-02-19T16:10:28.907Z,74.69
2023-02-19T16:11:33.894Z,74.42
2023-02-19T16:12:28.869Z,75.10
2023-02-19T16:13:28.849Z,75.04
2023-02-19T16:14:28.848Z,75.75
2023-02-19T16:15:28.850Z,75.65
2023-02-19T16:16:28.849Z,76.36
2023-02-19T16:17:28.817Z,76.36
2023-02-19T16:18:28.800Z,76.46
2023-02-19T16:19:28.811Z,75.75
2023-02-19T16:20:28.802Z,75.85
2023-02-19T16:21:28.759Z,75.85
2023-02-19T16:22:33.792Z,75.95
2023-02-19T16:23:28.748Z,75.99
2023-02-19T16:24:28.730Z,75.85
2023-02-19T16:25:28.765Z,75.85
2023-02-19T16:26:28.737Z,75.58
2023-02-19T16:27:28.746Z,76.50
2023-02-19T16:28:28.689Z,76.19
2023-02-19T16:29:28.683Z,75.95
2023-02-19T16:30:28.727Z,76.09
2023-02-19T16:31:28.767Z,75.99
2023-02-19T16:32:28.777Z,75.75
2023-02-19T16:33:33.652Z,76.26
2023-02-19T16:34:28.621Z,76.70
2023-02-19T16:35:28.626Z,76.60
2023-02-19T16:36:28.603Z,76.60
2023-02-19T16:37:28.584Z,77.11
2023-02-19T16:38:28.587Z,76.90
2023-02-19T16:39:28.576Z,77.11
2023-02-19T16:40:28.555Z,77.22
2023-02-19T16:41:28.567Z,77.22
2023-02-19T16:42:28.526Z,77.31
2023-02-19T16:43:28.524Z,77.31
2023-02-19T16:44:33.589Z,77.22
2023-02-19T16:45:28.575Z,77.01
2023-02-19T16:46:28.506Z,77.22
2023-02-19T16:47:28.468Z,77.45
2023-02-19T16:48:28.467Z,77.22
2023-02-19T16:49:28.453Z,77.76
2023-02-19T16:50:28.443Z,77.76
2023-02-19T16:51:28.439Z,77.76
2023-02-19T16:52:28.426Z,77.66
2023-02-19T16:53:28.404Z,77.66
2023-02-19T16:54:28.398Z,77.93
2023-02-19T16:55:33.403Z,77.76
2023-02-19T16:56:28.379Z,77.97
2023-02-19T16:57:28.356Z,77.66
2023-02-19T16:58:28.378Z,78.27
2023-02-19T16:59:28.385Z,77.35
2023-02-19T17:00:28.377Z,77.35
2023-02-19T17:01:28.421Z,77.35
2023-02-19T17:02:28.302Z,77.45
2023-02-19T17:03:28.291Z,77.56
2023-02-19T17:04:28.281Z,77.25
2023-02-19T17:05:28.300Z,77.04
2023-02-19T17:06:33.308Z,77.25
2023-02-19T17:07:28.243Z,77.04
2023-02-19T17:08:28.250Z,77.45
2023-02-19T17:09:28.225Z,77.04
2023-02-19T17:10:28.222Z,77.04
2023-02-19T17:11:28.232Z,77.04
2023-02-19T17:12:28.194Z,76.94
2023-02-19T17:13:28.184Z,76.94
2023-02-19T17:14:28.169Z,76.84
2023-02-19T17:15:28.165Z,76.84
2023-02-19T17:16:28.168Z,75.96
2023-02-19T17:17:33.155Z,76.47
2023-02-19T17:18:28.127Z,76.64
2023-02-19T17:19:28.109Z,76.43
2023-02-19T17:20:28.107Z,76.33
2023-02-19T17:21:28.106Z,76.47
2023-02-19T17:22:28.091Z,76.53
2023-02-19T17:23:28.098Z,76.74
2023-02-19T17:24:28.056Z,76.67
2023-02-19T17:25:28.046Z,77.04
2023-02-19T17:26:28.078Z,77.35
2023-02-19T17:27:28.036Z,77.25
2023-02-19T17:28:33.033Z,77.25
2023-02-19T17:29:28.067Z,77.15
2023-02-19T17:30:28.177Z,77.25
2023-02-19T17:31:28.203Z,77.04
2023-02-19T17:32:28.075Z,76.88
2023-02-19T17:33:27.957Z,76.94
2023-02-19T17:34:28.095Z,76.98
2023-02-19T17:35:27.951Z,76.94
2023-02-19T17:36:27.999Z,77.04
2023-02-19T17:37:27.914Z,77.15
2023-02-19T17:38:27.917Z,77.04
2023-02-19T17:39:32.910Z,77.15
2023-02-19T17:40:33.102Z,77.80
2023-02-19T17:41:28.880Z,77.80
2023-02-19T17:42:27.853Z,77.90
2023-02-19T17:43:27.874Z,78.20
2023-02-19T17:44:27.850Z,78.31
2023-02-19T17:45:27.848Z,78.88
2023-02-19T17:46:27.836Z,78.61
2023-02-19T17:47:27.845Z,78.82
2023-02-19T17:48:27.783Z,78.92
2023-02-19T17:49:27.779Z,79.43
2023-02-19T17:50:32.819Z,79.23
2023-02-19T17:51:27.756Z,79.43
2023-02-19T17:52:27.757Z,79.33